Time;durP1;ratioP1;P1;durP2;ratioP2;P2;SDS_P1;SDS_P2;PMS_P1;PMS_P2;Temp;Humidity;BMP_temperature;BMP_pressure;BME280_temperature;BME280_humidity;BME280_pressure;Samples;Min_cycle;Max_cycle;Signal;HPM_P1;HPM_P2
2023/01/14 00:01:50;;;;;;;33.75;7.03;;;3.50;99.90;;;2.20;100.00;97743.50;5051842;28;20806;-75
2023/01/14 00:04:16;;;;;;;23.17;6.25;;;3.50;99.90;;;2.12;100.00;97747.06;5069975;28;20411;-74
2023/01/14 00:06:43;;;;;;;55.72;10.07;;;3.40;99.90;;;2.19;100.00;97747.94;5051963;28;20506;-74
2023/01/14 00:09:12;;;;;;;36.97;8.48;;;3.40;99.90;;;2.02;100.00;97738.78;5070077;28;20410;-75
2023/01/14 00:11:48;;;;;;;29.63;7.00;;;3.30;99.90;;;1.99;100.00;97741.75;5070053;28;20791;-74
2023/01/14 00:14:17;;;;;;;45.73;8.50;;;3.30;99.90;;;1.97;100.00;97748.13;5069807;28;20506;-74
2023/01/14 00:16:44;;;;;;;31.48;7.90;;;3.30;99.90;;;2.00;100.00;97742.56;5069753;28;20419;-74
2023/01/14 00:19:11;;;;;;;42.30;8.85;;;3.20;99.90;;;1.95;100.00;97745.75;5071238;28;20405;-75
2023/01/14 00:21:37;;;;;;;29.15;8.13;;;3.20;99.90;;;1.86;100.00;97739.03;5073996;28;20868;-74
2023/01/14 00:24:05;;;;;;;23.58;6.60;;;3.20;99.90;;;1.82;100.00;97745.59;5073644;28;20478;-74
2023/01/14 00:26:31;;;;;;;34.83;8.63;;;3.10;99.90;;;1.84;100.00;97749.66;5073489;28;20967;-74
2023/01/14 00:28:57;;;;;;;48.88;9.93;;;3.10;99.90;;;1.86;100.00;97741.63;5073761;28;20541;-74
2023/01/14 00:31:27;;;;;;;34.70;8.52;;;3.10;99.90;;;1.77;100.00;97745.34;5073732;28;20769;-75
2023/01/14 00:33:54;;;;;;;44.08;10.60;;;3.10;99.90;;;1.83;100.00;97737.59;5073577;28;20404;-75
2023/01/14 00:36:23;;;;;;;59.13;11.98;;;3.10;99.90;;;1.81;100.00;97731.75;5073712;28;20521;-74
2023/01/14 00:38:49;;;;;;;30.88;8.73;;;3.10;99.90;;;1.73;100.00;97734.47;5073812;28;20397;-74
2023/01/14 00:41:23;;;;;;;97.68;14.88;;;3.10;99.90;;;1.65;100.00;97734.63;5073766;28;20434;-73
2023/01/14 00:43:52;;;;;;;44.20;11.50;;;3.00;99.90;;;1.69;100.00;97730.63;5073337;28;20419;-74
2023/01/14 00:46:22;;;;;;;36.70;8.48;;;3.00;99.90;;;1.61;100.00;97735.16;5073201;28;20404;-74
2023/01/14 00:48:48;;;;;;;88.65;14.18;;;2.90;99.90;;;1.56;100.00;97733.13;5073432;28;20400;-74
2023/01/14 00:51:15;;;;;;;143.35;16.58;;;2.90;99.90;;;1.54;100.00;97729.88;5073304;28;20512;-74
2023/01/14 00:53:41;;;;;;;119.13;16.35;;;2.90;99.90;;;1.51;100.00;97738.06;5073013;28;20400;-74
2023/01/14 00:56:09;;;;;;;78.37;12.73;;;2.90;99.90;;;1.62;100.00;97734.16;5071828;28;20416;-74
2023/01/14 00:58:36;;;;;;;25.52;7.07;;;2.90;99.90;;;1.47;100.00;97729.00;5073215;28;20479;-74
2023/01/14 01:01:02;;;;;;;43.88;8.50;;;2.80;99.90;;;1.49;100.00;97730.44;5073243;28;20767;-75
2023/01/14 01:03:29;;;;;;;45.15;9.73;;;2.80;99.90;;;1.63;100.00;97734.00;5072913;28;20396;-74
2023/01/14 01:05:54;;;;;;;77.05;11.27;;;2.90;99.90;;;1.51;100.00;97732.84;5072953;28;20430;-75
2023/01/14 01:08:22;;;;;;;52.03;9.35;;;2.80;99.90;;;1.47;100.00;97744.66;5073216;28;20889;-74
2023/01/14 01:10:50;;;;;;;85.38;13.07;;;2.80;99.90;;;1.49;100.00;97747.91;5073150;28;20491;-75
2023/01/14 01:13:16;;;;;;;139.80;15.20;;;2.80;99.90;;;1.47;100.00;97748.06;5072867;28;20414;-74
2023/01/14 01:15:43;;;;;;;126.67;17.00;;;2.80;99.90;;;1.45;100.00;97750.06;5072641;28;20498;-74
2023/01/14 01:18:11;;;;;;;60.60;10.65;;;2.80;99.90;;;1.55;100.00;97752.38;5072866;28;20410;-74
2023/01/14 01:20:38;;;;;;;60.75;10.35;;;2.90;99.90;;;1.47;100.00;97755.91;5072769;28;20483;-75
2023/01/14 01:23:05;;;;;;;35.22;8.35;;;2.80;99.90;;;1.41;100.00;97748.81;5072607;28;20411;-74
2023/01/14 01:25:31;;;;;;;40.53;8.05;;;2.80;99.90;;;1.37;100.00;97750.16;5072614;28;20927;-74
2023/01/14 01:27:58;;;;;;;133.80;13.77;;;2.70;99.90;;;1.37;100.00;97755.38;5072664;28;20396;-75
2023/01/14 01:30:25;;;;;;;107.32;13.32;;;2.70;99.90;;;1.37;100.00;97752.78;5072020;28;20408;-74
2023/01/14 01:32:53;;;;;;;50.97;8.02;;;2.70;99.90;;;1.41;100.00;97761.84;5072448;28;20469;-74
2023/01/14 01:35:20;;;;;;;40.42;7.68;;;2.80;99.90;;;1.39;100.00;97758.63;5072261;28;20415;-74
2023/01/14 01:37:45;;;;;;;54.97;10.18;;;2.70;99.90;;;1.47;100.00;97762.91;5072576;28;20880;-74
2023/01/14 01:40:12;;;;;;;37.03;7.70;;;2.80;99.90;;;1.44;100.00;97769.28;5072540;28;20465;-74
2023/01/14 01:42:54;;;;;;;43.13;8.40;;;2.70;99.90;;;1.46;100.00;97775.16;5072422;28;20714;-74
2023/01/14 01:45:36;;;;;;;55.03;8.32;;;2.80;99.90;;;1.38;100.00;97787.47;5072310;28;20423;-74
2023/01/14 01:48:07;;;;;;;40.72;7.35;;;2.70;99.90;;;1.33;100.00;97788.03;5072510;28;20876;-74
2023/01/14 01:50:34;;;;;;;296.80;22.15;;;2.70;99.90;;;1.31;100.00;97790.00;5072371;28;20447;-74
2023/01/14 01:53:01;;;;;;;48.88;9.52;;;2.70;99.90;;;1.33;100.00;97792.44;5072019;28;20919;-74
2023/01/14 01:55:31;;;;;;;258.70;18.05;;;2.70;99.90;;;1.27;100.00;97786.16;5072049;28;20411;-74
2023/01/14 01:57:57;;;;;;;110.43;14.10;;;2.60;99.90;;;1.30;100.00;97783.19;5072176;28;20445;-74
2023/01/14 02:00:25;;;;;;;52.13;8.75;;;2.60;99.90;;;1.22;100.00;97790.28;5072293;28;20873;-74
2023/01/14 02:02:56;;;;;;;39.10;7.78;;;2.60;99.90;;;1.25;100.00;97793.34;5071952;28;20435;-75
2023/01/14 02:05:25;;;;;;;49.57;8.30;;;2.50;99.90;;;1.37;100.00;97793.69;5072037;28;20398;-74
2023/01/14 02:07:51;;;;;;;39.70;7.22;;;2.60;99.90;;;1.37;100.00;97793.69;5072114;28;20408;-74
2023/01/14 02:10:18;;;;;;;25.85;6.30;;;2.70;99.90;;;1.47;100.00;97781.19;5072092;28;20902;-74
2023/01/14 02:13:20;;;;;;;29.55;7.03;;;2.80;99.90;;;1.57;100.00;97781.69;5071768;28;20396;-75
2023/01/14 02:16:05;;;;;;;29.02;6.28;;;2.80;99.90;;;1.55;100.00;97786.28;5071722;28;20832;-74
2023/01/14 02:18:47;;;;;;;28.63;6.40;;;2.90;99.90;;;1.58;100.00;97782.50;5071927;28;20407;-75
2023/01/14 02:21:20;;;;;;;17.40;5.47;;;2.90;99.90;;;1.56;100.00;97787.91;5071751;28;20392;-74
2023/01/14 02:24:44;;;;;;;22.90;5.68;;;2.90;99.90;;;1.54;100.00;97785.47;5071539;28;20752;-74
2023/01/14 02:27:41;;;;;;;28.30;6.10;;;2.80;99.90;;;1.54;100.00;97782.88;5071759;28;20403;-74
2023/01/14 02:30:46;;;;;;;33.42;6.93;;;2.90;99.90;;;1.52;100.00;97776.19;5071635;28;20400;-74
2023/01/14 02:33:28;;;;;;;18.40;4.97;;;2.80;99.90;;;1.45;100.00;97772.72;5071381;28;20396;-75
2023/01/14 02:36:02;;;;;;;17.20;5.13;;;2.70;99.90;;;1.42;100.00;97771.31;5071411;28;20412;-74
2023/01/14 02:38:35;;;;;;;25.60;6.00;;;2.70;99.90;;;1.40;100.00;97765.44;5070293;28;20456;-74
2023/01/14 02:41:17;;;;;;;20.85;5.05;;;2.70;99.90;;;1.37;100.00;97776.25;5071547;28;20394;-75
2023/01/14 02:44:07;;;;;;;26.60;5.90;;;2.70;99.90;;;1.36;100.00;97758.97;5070135;28;20435;-74
2023/01/14 02:46:40;;;;;;;24.23;5.53;;;2.70;99.90;;;1.31;100.00;97756.13;5071137;28;20437;-73
2023/01/14 02:49:12;;;;;;;31.08;6.72;;;2.60;99.90;;;1.30;100.00;97764.13;5071375;28;20404;-74
2023/01/14 02:51:38;;;;;;;31.40;6.25;;;2.60;99.90;;;1.27;100.00;97761.88;5071320;28;20497;-74
2023/01/14 02:54:05;;;;;;;16.98;5.20;;;2.60;99.90;;;1.24;100.00;97764.84;5071016;28;20509;-74
2023/01/14 02:56:32;;;;;;;26.27;6.18;;;2.50;99.90;;;1.27;100.00;97767.09;5071177;28;20476;-74
2023/01/14 02:59:29;;;;;;;35.20;5.97;;;2.60;99.90;;;1.21;100.00;97760.00;5071267;28;20853;-73
2023/01/14 03:02:24;;;;;;;29.25;5.70;;;2.50;99.90;;;1.16;100.00;97761.34;5071116;28;20415;-74
2023/01/14 03:05:19;;;;;;;22.83;5.55;;;2.50;99.90;;;1.20;100.00;97766.22;5069776;28;20831;-74
2023/01/14 03:07:55;;;;;;;28.20;5.22;;;2.50;99.90;;;1.20;100.00;97769.63;5071091;28;20399;-74
2023/01/14 03:10:28;;;;;;;25.67;5.63;;;2.50;99.90;;;1.17;100.00;97770.81;5071111;28;20494;-74
2023/01/14 03:13:07;;;;;;;22.98;5.38;;;2.50;99.90;;;1.18;100.00;97769.00;5070753;28;20431;-74
2023/01/14 03:15:41;;;;;;;22.15;5.32;;;2.50;99.90;;;1.18;100.00;97755.97;5070790;28;20422;-74
2023/01/14 03:18:19;;;;;;;20.90;5.05;;;2.50;99.90;;;1.31;100.00;97743.06;5071009;28;20836;-73
2023/01/14 03:20:51;;;;;;;21.40;5.80;;;2.60;99.90;;;1.33;100.00;97735.88;5070841;28;20399;-74
2023/01/14 03:23:23;;;;;;;25.20;5.75;;;2.60;99.90;;;1.37;100.00;97737.13;5070702;28;20445;-74
2023/01/14 03:25:51;;;;;;;21.33;5.55;;;2.70;99.90;;;1.41;100.00;97741.00;5070678;28;20395;-73
2023/01/14 03:28:24;;;;;;;29.92;5.78;;;2.60;99.90;;;1.51;100.00;97744.09;5070749;28;20438;-74
2023/01/14 03:30:56;;;;;;;29.80;6.45;;;2.70;99.90;;;1.55;100.00;97740.13;5070830;28;20396;-74
2023/01/14 03:33:29;;;;;;;24.95;5.60;;;2.80;99.90;;;1.57;100.00;97733.94;5070373;28;20403;-74
2023/01/14 03:35:57;;;;;;;32.55;5.50;;;2.80;99.90;;;1.58;100.00;97738.16;5070522;28;20415;-74
2023/01/14 03:38:29;;;;;;;29.05;5.50;;;2.80;99.90;;;1.56;100.00;97733.13;5070742;28;20391;-75
2023/01/14 03:40:57;;;;;;;25.93;5.47;;;2.80;99.90;;;1.52;100.00;97739.69;5070533;28;20466;-75
2023/01/14 03:43:31;;;;;;;27.88;5.28;;;2.80;99.90;;;1.49;100.00;97730.44;5070354;28;20881;-74
2023/01/14 03:45:58;;;;;;;19.47;5.20;;;2.70;99.90;;;1.44;100.00;97731.97;5070241;28;20754;-73
2023/01/14 03:48:25;;;;;;;29.60;5.47;;;2.70;99.90;;;1.41;100.00;97732.34;5070651;28;20469;-75
2023/01/14 03:51:00;;;;;;;21.05;4.95;;;2.70;99.90;;;1.36;100.00;97739.91;5070508;28;20423;-74
2023/01/14 03:53:34;;;;;;;21.90;5.18;;;2.60;99.90;;;1.33;100.00;97729.84;5068600;28;20408;-74
2023/01/14 03:56:13;;;;;;;18.53;4.80;;;2.60;99.90;;;1.35;100.00;97736.50;5070166;28;20855;-75
2023/01/14 03:58:45;;;;;;;23.92;5.20;;;2.60;99.90;;;1.42;100.00;97733.97;5070501;28;20395;-74
2023/01/14 04:01:17;;;;;;;34.00;5.90;;;2.70;99.90;;;1.47;100.00;97726.41;5070370;28;20453;-74
2023/01/14 04:03:45;;;;;;;28.38;5.93;;;2.70;99.90;;;1.54;100.00;97715.03;5070054;28;20395;-74
2023/01/14 04:06:12;;;;;;;21.92;5.30;;;2.80;99.90;;;1.54;100.00;97709.00;5070119;28;20865;-74
2023/01/14 04:08:38;;;;;;;20.73;4.82;;;2.80;99.90;;;1.52;100.00;97711.00;5070320;28;20939;-74
2023/01/14 04:11:04;;;;;;;28.58;5.15;;;2.80;99.90;;;1.49;100.00;97706.16;5070203;28;20404;-74
2023/01/14 04:16:15;;;;;;;18.60;4.57;;;2.80;99.90;;;1.43;100.00;97692.03;5070057;28;20426;-74
2023/01/14 04:18:41;;;;;;;24.13;5.32;;;2.70;99.90;;;1.46;100.00;97698.69;5070187;28;20399;-74
2023/01/14 04:21:08;;;;;;;18.87;4.77;;;2.70;99.90;;;1.44;100.00;97690.25;5070331;28;20907;-74
2023/01/14 04:23:34;;;;;;;27.20;5.63;;;2.70;99.90;;;1.47;100.00;97689.88;5069840;28;20450;-74
2023/01/14 04:26:01;;;;;;;14.32;4.03;;;2.70;99.90;;;1.41;100.00;97688.81;5069912;28;20940;-74
2023/01/14 04:28:27;;;;;;;17.20;3.92;;;2.70;99.90;;;1.45;100.00;97684.03;5070173;28;20395;-74
2023/01/14 04:30:54;;;;;;;18.65;4.60;;;2.70;99.90;;;1.52;100.00;97684.91;5069983;28;20418;-74
2023/01/14 04:33:20;;;;;;;22.13;4.32;;;2.80;99.90;;;1.55;100.00;97674.91;5069788;28;20403;-74
2023/01/14 04:35:50;;;;;;;19.33;4.45;;;2.80;99.90;;;1.57;100.00;97677.34;5069813;28;20988;-73
2023/01/14 04:38:23;;;;;;;14.93;3.83;;;2.80;99.90;;;1.54;100.00;97678.50;5069951;28;20403;-74
2023/01/14 04:40:49;;;;;;;14.77;3.45;;;2.80;99.90;;;1.51;100.00;97665.81;5069962;28;20392;-74
2023/01/14 04:43:15;;;;;;;24.05;4.35;;;2.80;99.90;;;1.52;100.00;97672.66;5069772;28;20410;-75
2023/01/14 04:45:41;;;;;;;26.20;4.90;;;2.80;99.90;;;1.49;100.00;97680.06;5069537;28;20392;-74
2023/01/14 04:48:07;;;;;;;23.95;5.82;;;2.80;99.90;;;1.51;100.00;97673.66;5069978;28;20421;-74
2023/01/14 04:50:41;;;;;;;16.23;3.90;;;2.70;99.90;;;1.44;100.00;97674.59;5069856;28;20818;-74
2023/01/14 04:53:08;;;;;;;17.35;4.15;;;2.70;99.90;;;1.39;100.00;97672.56;5069769;28;20404;-74
2023/01/14 04:55:38;;;;;;;22.08;4.40;;;2.70;99.90;;;1.40;100.00;97673.34;5068231;28;20460;-74
2023/01/14 04:58:07;;;;;;;17.73;4.18;;;2.70;99.90;;;1.34;100.00;97679.31;5069891;28;20431;-74
2023/01/14 05:00:33;;;;;;;21.48;4.55;;;2.70;99.90;;;1.30;100.00;97673.66;5069770;28;20399;-74
2023/01/14 05:03:02;;;;;;;19.73;4.20;;;2.60;99.90;;;1.29;100.00;97682.47;5069530;28;20403;-74
2023/01/14 05:05:29;;;;;;;30.95;5.30;;;2.60;99.90;;;1.27;100.00;97676.66;5069932;28;20387;-74
2023/01/14 05:07:54;;;;;;;14.10;3.72;;;2.60;99.90;;;1.27;100.00;97670.63;5072040;28;20416;-74
2023/01/14 05:10:20;;;;;;;23.33;4.60;;;2.60;99.90;;;1.23;100.00;97666.75;5073175;28;20419;-74
2023/01/14 05:12:57;;;;;;;28.50;5.30;;;2.50;99.90;;;1.23;100.00;97664.16;5071674;28;20404;-75
2023/01/14 05:15:25;;;;;;;18.45;4.05;;;2.50;99.90;;;1.22;100.00;97659.91;5071699;28;20443;-74
2023/01/14 05:17:51;;;;;;;15.73;4.03;;;2.60;99.90;;;1.20;100.00;97667.94;5071797;28;20792;-74
2023/01/14 05:20:17;;;;;;;22.65;4.50;;;2.50;99.90;;;1.17;100.00;97669.13;5072824;28;20436;-74
2023/01/14 05:22:43;;;;;;;18.23;4.20;;;2.50;99.90;;;1.18;100.00;97672.53;5072752;28;20402;-74
2023/01/14 05:25:09;;;;;;;14.95;4.10;;;2.50;99.90;;;1.19;100.00;97662.91;5072766;28;20396;-74
2023/01/14 05:27:35;;;;;;;23.30;4.38;;;2.50;99.90;;;1.18;100.00;97667.31;5072805;28;20435;-74
2023/01/14 05:30:04;;;;;;;17.63;3.58;;;2.50;99.90;;;1.14;100.00;97653.03;5072868;28;20392;-74
2023/01/14 05:32:30;;;;;;;17.00;4.18;;;2.50;99.90;;;1.15;100.00;97659.84;5071299;28;20776;-74
2023/01/14 05:34:56;;;;;;;15.23;4.45;;;2.50;99.90;;;1.14;100.00;97659.03;5072453;28;20873;-74
2023/01/14 05:37:22;;;;;;;24.10;5.20;;;2.50;99.90;;;1.10;100.00;97657.81;5072575;28;20400;-74
2023/01/14 05:39:48;;;;;;;26.38;4.32;;;2.40;99.90;;;1.06;100.00;97655.75;5072692;28;20386;-75
2023/01/14 05:47:44;;;;;;;13.00;3.83;;;2.40;99.90;;;1.04;100.00;97629.06;5073137;22;20432;-80
2023/01/14 05:50:11;;;;;;;19.02;4.25;;;2.30;99.90;;;1.03;100.00;97628.25;5052464;28;20433;-80
2023/01/14 05:52:37;;;;;;;23.00;5.57;;;2.40;99.90;;;1.00;100.00;97623.41;5052373;28;20443;-80
2023/01/14 05:55:04;;;;;;;22.92;4.55;;;2.30;99.90;;;0.99;100.00;97621.78;5052289;28;20484;-81
2023/01/14 05:57:31;;;;;;;16.15;4.00;;;2.30;99.90;;;1.00;100.00;97623.41;5052480;28;20401;-80
2023/01/14 05:59:57;;;;;;;21.92;5.15;;;2.30;99.90;;;1.03;100.00;97625.66;5052438;28;20436;-80
2023/01/14 06:07:56;;;;;;;25.35;5.22;;;2.40;99.90;;;1.05;100.00;97610.63;5052396;28;20396;-81
2023/01/14 06:10:24;;;;;;;14.37;3.70;;;2.40;99.90;;;1.06;100.00;97603.59;5052309;28;20397;-81
2023/01/14 06:13:02;;;;;;;20.80;3.85;;;2.40;99.90;;;1.08;100.00;97601.63;5052327;28;20401;-81
2023/01/14 06:15:34;;;;;;;23.08;4.32;;;2.40;99.90;;;1.06;100.00;97609.63;5052329;28;20409;-81
2023/01/14 06:18:09;;;;;;;31.00;5.32;;;2.40;99.90;;;1.09;100.00;97611.06;5052801;28;20413;-81
2023/01/14 06:20:37;;;;;;;24.83;4.63;;;2.40;99.90;;;1.03;100.00;97604.81;5067409;28;20397;-82
2023/01/14 06:23:03;;;;;;;19.55;4.93;;;2.40;99.90;;;1.01;100.00;97612.00;5075468;28;20482;-81
2023/01/14 06:25:29;;;;;;;27.67;4.95;;;2.30;99.90;;;1.01;100.00;97611.19;5053348;28;20463;-81
2023/01/14 06:27:56;;;;;;;29.80;4.75;;;2.30;99.90;;;1.03;100.00;97604.00;5064800;28;20413;-81
2023/01/14 06:30:22;;;;;;;25.05;5.13;;;2.30;99.90;;;0.98;100.00;97604.53;5076174;28;20404;-80
2023/01/14 06:32:48;;;;;;;25.63;4.40;;;2.30;99.90;;;0.94;100.00;97597.28;5060658;28;20480;-81
2023/01/14 06:35:14;;;;;;;18.43;4.40;;;2.30;99.90;;;0.95;100.00;97601.50;5051580;28;20901;-81
2023/01/14 06:37:44;;;;;;;19.70;4.88;;;2.30;99.90;;;0.95;100.00;97602.31;5051474;28;20417;-80
2023/01/14 06:40:12;;;;;;;27.65;5.03;;;2.30;99.90;;;1.01;100.00;97598.16;5051618;28;20466;-81
2023/01/14 06:42:40;;;;;;;23.70;5.00;;;2.30;99.90;;;1.05;100.00;97604.63;5051081;28;20449;-81
2023/01/14 06:45:07;;;;;;;21.40;4.60;;;2.30;99.90;;;1.13;100.00;97600.06;5051133;28;20459;-81
2023/01/14 06:47:33;;;;;;;32.90;5.15;;;2.40;99.90;;;1.19;100.00;97593.34;5051008;28;20416;-80
2023/01/14 06:49:59;;;;;;;20.83;4.65;;;2.40;99.90;;;1.26;100.00;97593.38;5051325;28;20405;-81
2023/01/14 06:52:25;;;;;;;25.17;4.73;;;2.50;99.90;;;1.31;100.00;97584.00;5051124;28;20970;-81
2023/01/14 06:54:53;;;;;;;27.67;5.30;;;2.50;99.90;;;1.41;100.00;97588.91;5051191;28;20496;-80
2023/01/14 06:57:19;;;;;;;25.87;5.50;;;2.70;99.90;;;1.47;100.00;97582.94;5051094;28;20544;-81
2023/01/14 06:59:45;;;;;;;23.65;5.45;;;2.70;99.90;;;1.54;100.00;97566.34;5051275;28;20496;-81
2023/01/14 07:02:12;;;;;;;20.13;4.95;;;2.80;99.90;;;1.63;100.00;97571.41;5051323;28;20413;-81
2023/01/14 07:04:38;;;;;;;27.83;5.57;;;2.90;99.90;;;1.69;100.00;97563.63;5050925;28;20409;-81
2023/01/14 07:07:05;;;;;;;26.52;4.85;;;2.90;99.90;;;1.73;100.00;97561.47;5051017;28;20394;-81
2023/01/14 07:09:31;;;;;;;24.52;5.00;;;3.00;99.90;;;1.86;100.00;97567.56;5051146;28;20409;-81
2023/01/14 07:11:59;;;;;;;24.52;5.13;;;3.10;99.90;;;1.92;100.00;97564.19;5050958;28;20506;-81
2023/01/14 07:14:24;;;;;;;23.50;5.13;;;3.10;99.90;;;1.95;100.00;97560.41;5050810;28;20413;-81
2023/01/14 07:16:50;;;;;;;18.55;5.05;;;3.20;99.90;;;1.95;100.00;97561.19;5050893;28;20414;-80
2023/01/14 07:19:16;;;;;;;27.20;5.05;;;3.20;99.90;;;2.03;100.00;97555.00;5050914;28;20405;-80
2023/01/14 07:21:42;;;;;;;20.60;4.63;;;3.20;99.90;;;2.02;100.00;97553.41;5050806;28;20406;-79
2023/01/14 07:24:10;;;;;;;22.73;4.35;;;3.30;99.90;;;2.00;100.00;97544.97;5052834;28;20930;-77
2023/01/14 07:26:35;;;;;;;26.08;5.05;;;3.20;99.90;;;2.05;100.00;97549.59;5049957;28;20401;-81
2023/01/14 07:29:03;;;;;;;25.35;4.60;;;3.20;99.90;;;2.03;100.00;97546.38;5050139;28;20898;-81
2023/01/14 07:31:29;;;;;;;22.95;4.45;;;3.30;99.90;;;2.00;100.00;97536.31;5054702;28;20419;-80
2023/01/14 07:33:55;;;;;;;20.45;4.35;;;3.30;99.90;;;2.01;100.00;97537.94;5060385;28;20393;-80
2023/01/14 07:36:21;;;;;;;22.23;5.05;;;3.20;99.90;;;2.00;100.00;97520.66;5050375;28;20743;-80
2023/01/14 07:38:46;;;;;;;21.80;4.68;;;3.20;99.90;;;2.05;100.00;97518.25;5055396;28;20405;-80
2023/01/14 07:41:18;;;;;;;22.23;4.35;;;3.20;99.90;;;2.12;100.00;97512.06;5050540;28;20492;-80
2023/01/14 07:43:44;;;;;;;24.87;4.73;;;3.30;99.90;;;2.17;100.00;97504.47;5050345;28;20408;-80
2023/01/14 07:46:12;;;;;;;23.60;4.10;;;3.40;99.90;;;2.21;100.00;97504.88;5050485;28;20402;-79
2023/01/14 07:48:38;;;;;;;23.73;4.18;;;3.40;99.90;;;2.26;100.00;97494.66;5041386;28;20552;-76
2023/01/14 07:51:05;;;;;;;21.52;3.97;;;3.40;99.90;;;2.28;100.00;97488.22;5042368;28;20427;-76
2023/01/14 07:53:32;;;;;;;18.52;4.07;;;3.50;99.90;;;2.32;100.00;97489.47;5057883;28;20398;-76
2023/01/14 07:56:00;;;;;;;28.10;4.88;;;3.50;99.90;;;2.38;100.00;97487.06;5038591;28;20983;-77
2023/01/14 07:58:26;;;;;;;25.23;5.22;;;3.60;99.90;;;2.40;100.00;97485.88;5049280;28;20459;-81
2023/01/14 08:00:55;;;;;;;26.92;4.03;;;3.60;99.90;;;2.45;100.00;97491.31;5050387;28;20484;-80
2023/01/14 08:03:22;;;;;;;22.05;3.85;;;3.60;99.90;;;2.52;100.00;97483.47;5050147;28;20763;-80
2023/01/14 08:05:49;;;;;;;31.75;4.70;;;3.70;99.90;;;2.56;100.00;97476.84;5050442;28;20398;-80
2023/01/14 08:08:15;;;;;;;22.77;3.87;;;3.70;99.90;;;2.65;100.00;97476.47;5050416;28;20573;-80
2023/01/14 08:10:41;;;;;;;30.08;4.68;;;3.80;99.90;;;2.69;100.00;97476.88;5050219;28;20409;-80
2023/01/14 08:13:11;;;;;;;26.63;4.93;;;3.80;99.90;;;2.80;100.00;97476.28;5049992;28;20458;-80
2023/01/14 08:15:37;;;;;;;38.50;4.93;;;3.90;99.90;;;2.91;100.00;97473.09;5040946;28;21022;-78
2023/01/14 08:18:03;;;;;;;31.13;4.90;;;4.10;99.90;;;2.98;100.00;97473.09;5038025;28;20796;-79
2023/01/14 08:20:31;;;;;;;21.73;3.80;;;4.10;99.90;;;3.02;100.00;97477.72;5041145;28;20410;-79
2023/01/14 08:22:58;;;;;;;30.77;4.55;;;4.20;99.90;;;3.04;100.00;97467.06;5042374;28;20442;-81
2023/01/14 08:25:25;;;;;;;21.83;3.75;;;4.20;99.90;;;3.31;100.00;97473.06;5046241;28;20434;-80
2023/01/14 08:27:51;;;;;;;28.85;4.20;;;4.30;99.90;;;3.44;100.00;97470.47;5041332;28;20422;-80
2023/01/14 08:30:17;;;;;;;36.58;4.57;;;4.40;99.90;;;3.36;100.00;97470.66;5045024;28;20408;-79
2023/01/14 08:32:44;;;;;;;29.48;4.40;;;4.50;99.90;;;3.36;100.00;97468.88;5044450;28;20403;-81
2023/01/14 08:35:10;;;;;;;27.75;4.28;;;4.50;99.90;;;3.36;100.00;97479.31;5040669;28;20400;-79
2023/01/14 08:37:37;;;;;;;29.13;4.05;;;4.50;99.90;;;3.48;100.00;97472.47;5044155;28;20401;-81
2023/01/14 08:40:04;;;;;;;27.87;4.80;;;4.50;99.90;;;3.45;100.00;97478.13;5048916;28;20454;-80
2023/01/14 08:42:30;;;;;;;23.90;3.70;;;4.60;99.90;;;3.51;100.00;97479.09;5053443;28;20405;-80
2023/01/14 08:44:56;;;;;;;34.88;4.60;;;4.60;99.90;;;3.69;100.00;97470.59;5052417;28;20421;-78
2023/01/14 08:47:22;;;;;;;25.02;3.80;;;4.70;99.90;;;3.71;100.00;97466.78;5054305;28;20404;-80
2023/01/14 08:49:48;;;;;;;24.63;3.85;;;4.80;99.90;;;3.67;100.00;97467.41;5053995;28;20407;-77
2023/01/14 08:52:14;;;;;;;24.93;3.60;;;4.80;99.90;;;3.75;100.00;97454.91;5044955;28;20895;-77
2023/01/14 08:54:41;;;;;;;19.85;3.08;;;4.80;99.90;;;3.80;100.00;97444.59;5042831;28;20463;-77
2023/01/14 08:57:07;;;;;;;27.20;3.97;;;4.90;99.90;;;3.85;100.00;97443.97;5041317;28;20424;-76
2023/01/14 08:59:33;;;;;;;25.73;3.72;;;4.90;99.90;;;3.99;100.00;97444.72;5057651;28;20515;-76
2023/01/14 09:01:59;;;;;;;27.13;3.80;;;5.00;99.90;;;3.95;100.00;97435.69;5063361;28;20411;-77
2023/01/14 09:04:25;;;;;;;21.23;3.50;;;5.00;99.90;;;4.03;100.00;97438.06;5057974;28;20447;-79
2023/01/14 09:17:56;;;;;;;20.85;3.00;;;5.30;99.90;;;4.38;100.00;97438.50;5045941;28;20496;-76
2023/01/14 09:20:28;;;;;;;19.60;3.17;;;5.40;99.90;;;4.38;100.00;97423.59;5068559;28;20425;-77
2023/01/14 09:22:54;;;;;;;18.08;2.60;;;5.50;99.90;;;4.39;100.00;97406.84;5053138;28;20471;-77
2023/01/14 09:25:20;;;;;;;21.67;3.23;;;5.50;99.90;;;4.36;100.00;97415.13;5042741;28;20474;-78
2023/01/14 09:27:47;;;;;;;18.33;3.10;;;5.40;99.90;;;4.65;100.00;97416.38;5068378;28;20444;-78
2023/01/14 09:30:13;;;;;;;21.13;3.20;;;5.70;99.90;;;4.55;100.00;97413.41;5053032;28;20393;-78
2023/01/14 09:32:40;;;;;;;16.02;2.88;;;5.60;99.90;;;4.54;100.00;97419.66;5047249;28;20438;-77
2023/01/14 09:35:07;;;;;;;24.02;3.10;;;5.60;99.90;;;4.61;100.00;97412.56;5061229;28;20658;-78
2023/01/14 09:37:34;;;;;;;12.77;2.70;;;5.60;99.90;;;4.64;100.00;97410.31;5030836;28;20762;-75
2023/01/14 09:40:00;;;;;;;24.73;3.00;;;5.70;99.90;;;4.73;100.00;97403.00;5030362;28;20444;-76
2023/01/14 09:42:31;;;;;;;24.17;3.25;;;5.70;99.90;;;4.59;100.00;97397.03;5032381;28;20403;-77
2023/01/14 09:45:09;;;;;;;17.60;2.80;;;5.70;99.90;;;4.62;100.00;97404.47;5032729;28;20403;-76
2023/01/14 09:47:35;;;;;;;16.58;2.53;;;5.70;99.90;;;4.76;100.00;97397.31;5032675;28;20442;-77
2023/01/14 09:50:03;;;;;;;10.07;2.30;;;5.80;99.90;;;4.94;100.00;97404.44;5033379;28;20482;-78
2023/01/14 09:52:53;;;;;;;13.65;2.15;;;5.90;99.90;;;5.01;100.00;97395.50;5040010;28;20449;-77
2023/01/14 09:55:29;;;;;;;13.85;2.60;;;6.00;99.90;;;5.04;100.00;97396.88;5032993;28;20480;-76
2023/01/14 09:58:00;;;;;;;13.07;2.22;;;6.10;99.90;;;5.11;100.00;97387.16;5040777;28;20811;-78
2023/01/14 10:00:39;;;;;;;11.75;2.20;;;6.10;99.90;;;5.21;100.00;97392.69;5041671;28;20427;-77
2023/01/14 10:03:29;;;;;;;10.93;2.27;;;6.20;99.90;;;5.30;100.00;97383.53;5033484;28;20447;-77
2023/01/14 10:06:01;;;;;;;12.43;2.53;;;6.30;99.90;;;5.39;100.00;97389.28;5032553;28;20468;-77
2023/01/14 10:08:35;;;;;;;12.65;2.60;;;6.40;99.90;;;5.52;100.00;97386.53;5031120;28;20504;-77
2023/01/14 10:11:04;;;;;;;10.73;2.28;;;6.40;99.90;;;5.47;100.00;97377.69;5032418;28;20776;-77
2023/01/14 10:13:34;;;;;;;10.43;2.50;;;6.50;99.90;;;5.51;100.00;97373.59;5031751;28;20411;-77
2023/01/14 10:16:08;;;;;;;8.65;2.58;;;6.40;99.90;;;5.53;100.00;97369.75;5031944;28;20422;-77
2023/01/14 10:18:39;;;;;;;11.50;2.40;;;6.50;99.90;;;5.57;100.00;97357.78;5032135;28;20406;-77
2023/01/14 10:21:16;;;;;;;13.07;2.63;;;6.60;99.90;;;5.53;100.00;97342.69;5032168;28;20403;-77
2023/01/14 10:23:42;;;;;;;14.05;2.72;;;6.50;99.90;;;5.43;100.00;97346.63;5031789;28;20933;-77
2023/01/14 10:26:13;;;;;;;10.23;2.28;;;6.50;99.90;;;5.49;100.00;97321.31;5031860;28;20407;-77
2023/01/14 10:28:40;;;;;;;8.38;2.05;;;6.40;99.90;;;5.48;100.00;97290.06;5031917;28;20453;-77
2023/01/14 10:31:15;;;;;;;12.43;2.10;;;6.50;99.90;;;5.52;100.00;97278.88;5031829;28;20395;-77
2023/01/14 10:33:41;;;;;;;10.30;2.23;;;6.50;99.90;;;5.43;100.00;97275.75;5031708;28;20448;-77
2023/01/14 10:36:15;;;;;;;11.65;2.30;;;6.40;99.90;;;5.45;100.00;97273.72;5031646;28;20425;-77
2023/01/14 10:38:42;;;;;;;7.88;2.40;;;6.50;99.90;;;5.54;100.00;97279.47;5032227;28;20438;-77
2023/01/14 10:41:10;;;;;;;7.25;2.10;;;6.50;99.90;;;5.61;100.00;97282.00;5032330;28;20395;-77
2023/01/14 10:43:44;;;;;;;16.27;2.78;;;6.60;99.90;;;5.64;100.00;97271.06;5033703;28;20445;-77
2023/01/14 10:46:16;;;;;;;13.60;2.40;;;6.60;99.90;;;5.67;100.00;97274.03;5031504;28;20613;-77
2023/01/14 10:48:49;;;;;;;9.32;2.20;;;6.60;99.90;;;5.70;100.00;97260.47;5031839;28;20411;-77
2023/01/14 10:51:37;;;;;;;6.35;1.95;;;6.70;99.90;;;5.81;100.00;97269.41;5031389;28;20403;-77
2023/01/14 10:54:13;;;;;;;10.35;2.20;;;6.70;99.90;;;5.81;100.00;97266.78;5029876;28;20407;-78